Time;durP1;ratioP1;P1;durP2;ratioP2;P2;SDS_P1;SDS_P2;PMS_P1;PMS_P2;Temp;Humidity;BMP_temperature;BMP_pressure;BME280_temperature;BME280_humidity;BME280_pressure;Samples;Min_cycle;Max_cycle;Signal;HPM_P1;HPM_P2
2021/12/16 00:01:51;;;;;;;;;47.75;38.25;;;;;11.39;70.49;103260.09;5037695;28;45339;-56
2021/12/16 00:07:21;;;;;;;;;41.00;35.25;;;;;11.36;70.11;103263.66;5036787;28;45303;-55
2021/12/16 00:10:19;;;;;;;;;40.00;34.00;;;;;11.36;70.01;103258.38;5036827;28;45977;-53
2021/12/16 00:31:51;;;;;;;;;35.00;30.00;;;;;11.38;69.79;103258.38;5018473;28;45913;-52
2021/12/16 00:34:20;;;;;;;;;32.00;30.50;;;;;11.40;69.95;103267.13;5034358;28;45447;-51
2021/12/16 00:36:46;;;;;;;;;38.25;31.75;;;;;11.39;69.77;103260.97;5028497;28;45632;-51
2021/12/16 00:39:20;;;;;;;;;41.00;34.75;;;;;11.40;69.90;103261.84;5035165;28;45566;-48
2021/12/16 00:41:50;;;;;;;;;44.00;37.50;;;;;11.40;69.48;103257.44;5036835;28;45477;-51
2021/12/16 00:45:07;;;;;;;;;26.00;26.00;;;;;11.42;69.58;103254.75;5036597;28;45383;-52
2021/12/16 00:49:46;;;;;;;;;29.25;27.00;;;;;11.42;69.54;103260.91;5031838;28;45265;-54
2021/12/16 00:55:17;;;;;;;;;36.00;32.50;;;;;11.39;69.71;103249.56;5025708;28;45451;-49
2021/12/16 00:57:45;;;;;;;;;46.25;35.25;;;;;11.39;69.97;103252.19;5027907;28;45296;-52
2021/12/16 01:00:14;;;;;;;;;41.00;34.25;;;;;11.38;70.12;103245.19;5030290;28;45753;-50
2021/12/16 01:02:59;;;;;;;;;51.50;41.00;;;;;11.34;70.03;103248.78;5029461;28;46293;-53
2021/12/16 01:08:22;;;;;;;;;48.25;37.50;;;;;11.33;70.36;103247.03;5028228;28;45370;-50
2021/12/16 01:35:47;;;;;;;;;50.25;39.25;;;;;11.29;70.59;103243.59;5026814;28;45424;-56
2021/12/16 01:46:58;;;;;;;;;45.25;38.50;;;;;11.30;70.42;103250.63;5031698;28;45212;-57
2021/12/16 01:54:53;;;;;;;;;52.75;41.75;;;;;11.24;70.72;103258.66;5037044;28;45522;-56
2021/12/16 01:57:38;;;;;;;;;48.25;39.00;;;;;11.24;70.81;103255.16;5032339;28;45384;-55
2021/12/16 02:00:25;;;;;;;;;51.75;44.00;;;;;11.24;70.73;103273.63;5031432;28;45369;-56
2021/12/16 02:02:56;;;;;;;;;51.00;39.25;;;;;11.21;70.64;103265.75;5033812;28;45364;-56
2021/12/16 02:10:35;;;;;;;;;54.50;41.75;;;;;11.23;70.60;103266.63;5028218;28;45642;-55
2021/12/16 02:13:30;;;;;;;;;47.25;38.00;;;;;11.24;70.54;103271.00;5033272;28;45265;-56
2021/12/16 02:37:34;;;;;;;;;51.25;42.25;;;;;11.06;71.02;103264.31;5028432;28;45408;-56
2021/12/16 02:40:03;;;;;;;;;45.00;37.25;;;;;11.04;70.95;103268.75;5026904;28;46824;-56
2021/12/16 02:42:39;;;;;;;;;47.50;39.25;;;;;10.98;70.87;103264.50;5027684;28;45442;-56
2021/12/16 02:50:53;;;;;;;;;46.75;39.00;;;;;11.00;71.27;103267.09;5028458;28;45442;-56
2021/12/16 02:53:19;;;;;;;;;54.00;42.25;;;;;11.01;71.43;103272.34;5032064;28;46505;-56
2021/12/16 02:55:46;;;;;;;;;48.50;40.75;;;;;11.02;71.03;103274.06;5028133;28;45418;-57
2021/12/16 02:58:12;;;;;;;;;42.00;37.25;;;;;11.06;71.10;103274.88;5029954;28;45503;-56
2021/12/16 03:00:43;;;;;;;;;53.25;42.00;;;;;11.07;71.03;103263.44;5026564;28;49687;-56
2021/12/16 03:03:09;;;;;;;;;46.25;36.75;;;;;11.06;70.86;103275.75;5031928;28;45372;-56
2021/12/16 03:05:35;;;;;;;;;52.75;41.00;;;;;11.08;71.02;103271.31;5027389;28;45283;-56
2021/12/16 03:08:00;;;;;;;;;53.00;39.50;;;;;11.09;70.76;103274.81;5032197;28;45548;-55
2021/12/16 03:20:50;;;;;;;;;50.50;43.25;;;;;11.04;71.32;103277.53;5029363;28;45528;-57
2021/12/16 03:29:01;;;;;;;;;51.75;38.75;;;;;11.05;71.08;103279.28;5029334;28;45198;-56
2021/12/16 03:36:47;;;;;;;;;55.25;43.50;;;;;11.04;71.04;103279.31;5030984;28;45518;-57
2021/12/16 03:39:13;;;;;;;;;57.00;42.00;;;;;11.04;71.22;103277.53;5028768;28;45883;-57
2021/12/16 03:41:38;;;;;;;;;34.00;34.00;;;;;11.06;71.57;103280.13;5030160;28;46009;-57
2021/12/16 03:44:10;;;;;;;;;46.75;39.50;;;;;11.05;70.99;103278.41;5031557;28;45455;-57
2021/12/16 03:46:39;;;;;;;;;54.50;43.50;;;;;11.04;71.06;103279.31;5027572;28;45229;-58
2021/12/16 03:49:24;;;;;;;;;52.50;40.75;;;;;11.05;71.11;103274.00;5031781;28;45462;-48
2021/12/16 03:52:06;;;;;;;;;49.75;38.75;;;;;11.06;71.37;103270.50;5030644;28;46287;-49
2021/12/16 03:54:37;;;;;;;;;46.00;37.25;;;;;11.04;71.14;103274.91;5029550;28;45247;-49
2021/12/16 03:57:06;;;;;;;;;49.25;39.25;;;;;11.07;71.26;103279.28;5026472;28;45387;-50
2021/12/16 03:59:34;;;;;;;;;47.50;40.00;;;;;11.07;71.37;103272.22;5031062;28;45442;-48
2021/12/16 04:02:06;;;;;;;;;47.25;39.50;;;;;11.09;71.48;103278.31;5031428;28;46224;-52
2021/12/16 04:04:31;;;;;;;;;50.00;40.25;;;;;11.11;71.21;103273.88;5028879;28;45245;-53
2021/12/16 04:06:57;;;;;;;;;52.25;42.25;;;;;11.11;71.38;103273.00;5030634;28;45317;-52
2021/12/16 04:09:23;;;;;;;;;51.00;39.25;;;;;11.11;71.73;103275.66;5029794;28;45360;-53
2021/12/16 04:11:57;;;;;;;;;46.50;39.00;;;;;11.11;71.65;103280.94;5031583;28;46202;-52
2021/12/16 04:14:22;;;;;;;;;42.50;38.50;;;;;11.13;71.70;103279.13;5029498;28;45472;-51
2021/12/16 04:16:52;;;;;;;;;49.25;41.50;;;;;11.09;71.36;103272.19;5030619;28;45513;-51
2021/12/16 04:19:25;;;;;;;;;52.00;41.50;;;;;11.07;71.45;103274.88;5026246;28;45637;-52
2021/12/16 04:22:00;;;;;;;;;53.50;40.75;;;;;11.07;71.77;103276.63;5029456;28;45424;-53
2021/12/16 04:24:26;;;;;;;;;36.50;28.75;;;;;11.08;71.72;103278.38;5030695;28;45334;-52
2021/12/16 04:26:55;;;;;;;;;47.50;39.50;;;;;11.10;71.55;103282.69;5030748;28;45380;-50
2021/12/16 04:29:23;;;;;;;;;53.25;40.75;;;;;11.09;71.53;103283.59;5029792;28;45194;-49
2021/12/16 04:31:50;;;;;;;;;50.50;41.25;;;;;11.08;71.67;103278.38;5028510;28;45521;-48
2021/12/16 04:34:16;;;;;;;;;51.75;41.25;;;;;11.08;71.50;103279.22;5026345;28;45403;-52
2021/12/16 04:36:42;;;;;;;;;54.50;43.00;;;;;11.10;71.73;103281.84;5031069;28;45304;-54
2021/12/16 04:39:11;;;;;;;;;54.25;44.00;;;;;11.12;71.79;103285.28;5029823;28;45420;-53
2021/12/16 04:41:38;;;;;;;;;59.75;43.00;;;;;11.13;71.61;103282.63;5024321;28;46019;-51
2021/12/16 04:44:08;;;;;;;;;51.50;42.25;;;;;11.15;71.77;103287.91;5030334;28;45481;-51
2021/12/16 04:46:34;;;;;;;;;49.00;39.75;;;;;11.15;71.65;103288.75;5029077;28;45251;-53
2021/12/16 04:49:00;;;;;;;;;52.75;43.25;;;;;11.15;71.62;103298.44;5031043;28;45299;-53
2021/12/16 04:51:29;;;;;;;;;65.50;52.00;;;;;11.11;71.50;103296.75;5029169;28;45613;-53
2021/12/16 04:53:55;;;;;;;;;68.25;47.75;;;;;11.11;71.32;103297.63;5029719;28;45475;-53
2021/12/16 04:56:21;;;;;;;;;60.25;48.50;;;;;11.12;71.57;103294.06;5029108;28;45312;-53
2021/12/16 04:58:50;;;;;;;;;70.50;51.50;;;;;11.13;71.40;103302.84;5031441;28;45358;-51
2021/12/16 05:01:16;;;;;;;;;57.25;41.50;;;;;11.11;71.43;103299.41;5026302;28;46073;-50
2021/12/16 05:03:42;;;;;;;;;55.00;42.75;;;;;11.08;71.90;103302.97;5029632;28;45450;-48
2021/12/16 05:06:09;;;;;;;;;55.00;41.00;;;;;11.09;71.90;103298.56;5029283;28;46529;-51
2021/12/16 05:08:35;;;;;;;;;58.00;42.75;;;;;11.09;71.68;103303.84;5030885;28;45534;-50
2021/12/16 05:11:03;;;;;;;;;46.75;36.75;;;;;11.08;71.65;103297.69;5030368;28;45538;-48
2021/12/16 05:13:30;;;;;;;;;53.25;44.25;;;;;11.09;71.81;103298.56;5030458;28;45228;-50
2021/12/16 05:16:02;;;;;;;;;53.75;42.00;;;;;11.09;72.06;103299.44;5029695;28;45165;-51
2021/12/16 05:18:33;;;;;;;;;55.25;43.50;;;;;11.12;71.63;103301.13;5032750;28;45411;-49
2021/12/16 05:21:02;;;;;;;;;51.75;42.75;;;;;11.14;71.93;103305.50;5029244;28;45561;-50
2021/12/16 05:28:40;;;;;;;;;52.00;41.50;;;;;11.14;71.74;103308.13;5032853;28;45344;-50
2021/12/16 05:31:07;;;;;;;;;47.50;39.00;;;;;11.12;71.83;103320.47;5031303;28;45264;-51
2021/12/16 05:33:33;;;;;;;;;45.75;37.00;;;;;11.11;71.81;103316.09;5032024;28;45318;-50
2021/12/16 05:35:58;;;;;;;;;44.75;36.50;;;;;11.12;71.71;103315.19;5033970;28;45439;-50
2021/12/16 05:38:27;;;;;;;;;54.75;41.25;;;;;11.12;72.05;103315.19;5029942;28;45899;-51
2021/12/16 05:40:53;;;;;;;;;53.25;41.50;;;;;11.12;72.15;103320.47;5030130;28;46117;-53
2021/12/16 05:43:23;;;;;;;;;43.75;37.75;;;;;11.13;72.10;103324.81;5029729;28;45480;-53
2021/12/16 05:45:49;;;;;;;;;44.75;37.50;;;;;11.14;71.75;103331.00;5033131;28;45505;-52
2021/12/16 05:48:18;;;;;;;;;51.25;40.75;;;;;11.16;72.09;103330.06;5031872;28;45450;-53
2021/12/16 05:50:47;;;;;;;;;53.75;38.00;;;;;11.17;72.12;103337.06;5032811;28;45252;-51
2021/12/16 05:53:13;;;;;;;;;45.00;37.00;;;;;11.18;72.15;103322.97;5030077;28;45394;-53
2021/12/16 05:55:39;;;;;;;;;41.75;35.75;;;;;11.19;71.94;103318.56;5031699;28;45377;-51
2021/12/16 05:58:07;;;;;;;;;40.25;36.25;;;;;11.21;71.73;103331.72;5033592;28;45533;-49
2021/12/16 06:00:40;;;;;;;;;46.00;36.75;;;;;11.22;71.95;103331.72;5032468;28;45423;-52
2021/12/16 06:03:06;;;;;;;;;42.00;36.00;;;;;11.23;71.87;103335.22;5032454;28;45453;-53
2021/12/16 06:05:31;;;;;;;;;45.75;36.50;;;;;11.23;71.94;103333.44;5032230;28;45537;-52
2021/12/16 06:07:57;;;;;;;;;47.25;36.00;;;;;11.22;71.74;103337.00;5030849;28;45469;-49
2021/12/16 06:12:55;;;;;;;;;43.25;35.00;;;;;11.24;71.55;103345.75;5004873;28;45483;-50
2021/12/16 06:15:41;;;;;;;;;45.50;35.00;;;;;11.25;71.56;103342.19;5006821;28;45329;-48
2021/12/16 06:26:34;;;;;;;;;42.75;37.00;;;;;11.27;71.44;103348.31;5023485;28;45443;-51
2021/12/16 06:29:00;;;;;;;;;44.25;36.25;;;;;11.26;71.47;103338.66;5022883;28;45233;-49
2021/12/16 06:31:25;;;;;;;;;45.25;37.00;;;;;11.28;71.61;103344.75;5022762;28;46176;-53
2021/12/16 06:33:51;;;;;;;;;49.25;42.00;;;;;11.30;71.74;103337.72;5022351;28;45237;-49
2021/12/16 06:36:16;;;;;;;;;50.00;38.25;;;;;11.31;71.46;103342.09;5032409;28;45252;-51
2021/12/16 06:38:42;;;;;;;;;49.50;40.75;;;;;11.33;71.78;103342.03;5025640;28;45328;-54
2021/12/16 06:41:08;;;;;;;;;44.25;38.00;;;;;11.35;71.51;103343.75;5025146;28;45553;-50
2021/12/16 06:43:35;;;;;;;;;55.25;43.25;;;;;11.37;71.54;103341.94;5005750;28;45465;-52
2021/12/16 06:46:04;;;;;;;;;41.75;34.00;;;;;11.35;71.42;103341.09;5015908;28;45337;-50
2021/12/16 06:48:33;;;;;;;;;45.50;39.50;;;;;11.34;71.30;103344.63;5025108;28;45229;-50
2021/12/16 06:51:03;;;;;;;;;43.25;38.50;;;;;11.35;71.38;103346.38;5022062;28;45332;-53
2021/12/16 06:53:37;;;;;;;;;52.75;40.75;;;;;11.34;71.60;103349.91;5027790;28;45328;-52
2021/12/16 06:58:42;;;;;;;;;44.00;35.00;;;;;11.37;71.10;103359.53;5022176;28;45260;-52
2021/12/16 07:01:17;;;;;;;;;49.25;38.25;;;;;11.39;71.50;103363.91;5021873;28;46098;-54
2021/12/16 07:03:47;;;;;;;;;50.00;37.75;;;;;11.40;71.19;103362.13;5021888;28;45220;-59
2021/12/16 07:06:16;;;;;;;;;44.00;37.75;;;;;11.40;71.45;103364.78;5022122;28;45338;-59
2021/12/16 07:08:42;;;;;;;;;43.00;38.50;;;;;11.41;71.55;103362.09;5022240;28;45246;-61
2021/12/16 07:11:08;;;;;;;;;52.00;40.75;;;;;11.42;71.37;103363.81;5020342;28;45440;-61
2021/12/16 07:13:40;;;;;;;;;45.25;37.00;;;;;11.42;71.33;103368.25;5021889;28;45392;-62
2021/12/16 07:16:06;;;;;;;;;50.25;38.25;;;;;11.42;70.97;103369.09;5021674;28;45380;-61
2021/12/16 07:18:32;;;;;;;;;48.25;40.00;;;;;11.42;71.21;103369.09;5021752;28;45274;-61
2021/12/16 07:20:58;;;;;;;;;53.00;41.00;;;;;11.43;71.27;103368.19;5021551;28;45649;-61
2021/12/16 07:23:24;;;;;;;;;55.25;42.50;;;;;11.45;71.26;103368.16;5021419;28;45399;-61
2021/12/16 07:25:49;;;;;;;;;53.25;42.25;;;;;11.46;70.99;103367.28;5021460;28;45546;-61
2021/12/16 07:28:15;;;;;;;;;56.00;40.00;;;;;11.44;71.33;103364.66;5021652;28;45368;-61
2021/12/16 07:30:44;;;;;;;;;55.00;42.75;;;;;11.45;71.03;103366.41;5020953;28;46023;-61
2021/12/16 07:33:12;;;;;;;;;53.00;41.75;;;;;11.45;71.07;103373.44;5021529;28;45345;-61
2021/12/16 07:35:39;;;;;;;;;54.00;42.50;;;;;11.48;71.32;103375.16;5021608;28;45224;-61
2021/12/16 07:38:06;;;;;;;;;54.75;42.50;;;;;11.48;71.52;103373.41;5021771;28;45256;-61
2021/12/16 07:40:33;;;;;;;;;60.75;49.00;;;;;11.50;71.10;103371.59;5021428;28;45424;-61
2021/12/16 07:45:36;;;;;;;;;54.00;42.00;;;;;11.54;71.46;103378.56;5021220;28;45308;-61
2021/12/16 07:48:03;;;;;;;;;58.25;43.50;;;;;11.54;71.10;103375.91;5021309;28;45491;-61
2021/12/16 07:50:30;;;;;;;;;52.25;41.25;;;;;11.54;71.06;103375.91;5026325;28;45518;-62
2021/12/16 07:52:55;;;;;;;;;55.75;42.00;;;;;11.56;71.00;103373.22;5008708;28;47062;-60
2021/12/16 07:55:22;;;;;;;;;54.75;43.25;;;;;11.56;71.33;103374.09;5029741;28;45515;-60
2021/12/16 07:57:48;;;;;;;;;53.50;41.00;;;;;11.56;71.15;103376.75;5025552;28;45561;-59
2021/12/16 08:00:21;;;;;;;;;50.75;40.25;;;;;11.59;70.97;103391.63;5024937;28;45593;-61
2021/12/16 08:02:47;;;;;;;;;58.00;44.25;;;;;11.58;71.25;103381.97;5028633;28;45372;-61
2021/12/16 08:05:13;;;;;;;;;49.50;40.25;;;;;11.60;71.14;103385.44;5031428;28;45410;-60
2021/12/16 08:07:40;;;;;;;;;46.25;40.50;;;;;11.61;70.79;103389.81;5029639;28;45352;-63
2021/12/16 08:10:10;;;;;;;;;57.75;42.25;;;;;11.62;70.92;103391.59;5029187;28;45372;-59
2021/12/16 08:12:36;;;;;;;;;55.25;42.50;;;;;11.62;70.81;103395.09;5027342;28;45535;-59
2021/12/16 08:15:03;;;;;;;;;52.50;39.25;;;;;11.63;70.71;103401.25;5027318;28;45446;-65
2021/12/16 08:17:29;;;;;;;;;40.50;37.25;;;;;11.62;70.57;103404.78;5027762;28;45562;-62
2021/12/16 08:19:55;;;;;;;;;46.50;38.75;;;;;11.62;70.66;103403.03;5030066;28;46153;-61
2021/12/16 08:22:21;;;;;;;;;50.75;36.75;;;;;11.64;70.41;103395.94;5027751;28;45370;-62
2021/12/16 08:24:46;;;;;;;;;50.00;36.75;;;;;11.66;70.56;103398.53;5028781;28;45435;-63
2021/12/16 08:27:12;;;;;;;;;51.00;36.25;;;;;11.68;70.66;103400.22;5030593;28;45318;-63
2021/12/16 08:29:38;;;;;;;;;52.75;40.25;;;;;11.68;70.63;103397.59;5030882;28;46230;-66
2021/12/16 08:32:05;;;;;;;;;40.75;37.25;;;;;11.67;70.68;103403.78;5028020;28;45249;-62
2021/12/16 08:34:33;;;;;;;;;49.75;41.75;;;;;11.67;70.64;103408.19;5029870;28;45347;-62
2021/12/16 08:36:59;;;;;;;;;45.25;36.00;;;;;11.69;70.53;103404.63;5027308;28;45337;-63
2021/12/16 08:39:26;;;;;;;;;45.50;37.00;;;;;11.71;70.49;103408.09;5027118;28;45912;-61
2021/12/16 08:41:54;;;;;;;;;43.75;36.50;;;;;11.75;70.26;103415.03;5018267;28;45577;-62
2021/12/16 08:44:20;;;;;;;;;44.50;36.00;;;;;11.77;70.45;103409.75;5019390;28;45432;-62
2021/12/16 08:46:50;;;;;;;;;46.00;37.00;;;;;11.81;70.63;103408.78;5019191;28;45633;-61
2021/12/16 08:49:16;;;;;;;;;49.50;36.75;;;;;11.84;70.26;103418.41;5019984;28;46102;-62
2021/12/16 08:51:45;;;;;;;;;44.25;37.00;;;;;11.84;70.02;103416.63;5025875;28;45317;-62
2021/12/16 08:54:11;;;;;;;;;45.25;38.25;;;;;11.85;69.83;103412.22;5026857;28;45498;-61
2021/12/16 08:56:38;;;;;;;;;47.00;37.75;;;;;11.87;69.88;103421.88;5026285;28;45230;-61
2021/12/16 08:59:07;;;;;;;;;52.50;38.75;;;;;11.90;69.93;103423.56;5024739;28;45514;-61
2021/12/16 09:01:37;;;;;;;;;46.25;37.00;;;;;11.93;70.19;103423.53;5025205;28;45394;-61
2021/12/16 09:04:02;;;;;;;;;45.25;37.25;;;;;11.94;69.62;103420.84;5026143;28;45550;-61
2021/12/16 09:06:28;;;;;;;;;48.50;38.25;;;;;11.96;69.90;103421.66;5026312;28;45266;-61
2021/12/16 09:08:55;;;;;;;;;44.75;34.50;;;;;11.98;69.37;103426.91;5026503;28;45375;-62
2021/12/16 09:11:24;;;;;;;;;37.00;33.00;;;;;11.99;69.08;103433.94;5026592;28;45161;-61
2021/12/16 09:13:53;;;;;;;;;43.50;34.50;;;;;11.98;69.14;103429.56;5027069;28;45421;-61
2021/12/16 09:16:21;;;;;;;;;45.75;37.00;;;;;12.00;69.16;103433.88;5026855;28;45213;-61
2021/12/16 09:18:47;;;;;;;;;46.00;37.00;;;;;12.01;69.27;103430.38;5026721;28;46180;-61
2021/12/16 09:21:17;;;;;;;;;42.00;34.75;;;;;12.09;69.06;103432.84;5026783;28;45589;-62
2021/12/16 09:23:45;;;;;;;;;39.75;30.00;;;;;12.12;69.09;103443.34;5027154;28;45166;-61
2021/12/16 09:26:11;;;;;;;;;42.75;36.25;;;;;12.14;68.93;103443.28;5026902;28;45286;-61
2021/12/16 09:28:37;;;;;;;;;50.25;37.25;;;;;12.16;68.88;103441.47;5026699;28;45420;-61
2021/12/16 09:31:09;;;;;;;;;32.25;30.75;;;;;12.17;68.54;103446.75;5026582;28;45593;-62
2021/12/16 09:33:36;;;;;;;;;39.25;33.25;;;;;12.16;68.49;103452.03;5026702;28;45285;-61
2021/12/16 09:36:03;;;;;;;;;41.75;33.00;;;;;12.17;68.47;103448.53;5025739;28;45191;-61
2021/12/16 09:38:29;;;;;;;;;39.75;34.50;;;;;12.16;68.42;103452.03;5026424;28;45467;-62
2021/12/16 09:40:57;;;;;;;;;42.00;34.25;;;;;12.16;68.55;103452.91;5026378;28;45447;-61
2021/12/16 09:43:27;;;;;;;;;42.75;38.25;;;;;12.18;68.54;103456.41;5026800;28;45365;-61
2021/12/16 09:45:55;;;;;;;;;55.25;37.75;;;;;12.19;68.17;103458.16;5026575;28;45246;-61
2021/12/16 09:48:21;;;;;;;;;45.75;37.00;;;;;12.17;68.47;103459.97;5026227;28;45446;-61
2021/12/16 09:50:47;;;;;;;;;48.75;36.50;;;;;12.19;68.55;103463.44;5026275;28;45322;-61
2021/12/16 09:53:13;;;;;;;;;43.50;36.25;;;;;12.21;68.42;103463.41;5026591;28;45429;-61
2021/12/16 09:55:39;;;;;;;;;47.00;35.75;;;;;12.24;68.33;103471.25;5026462;28;45217;-61
2021/12/16 09:58:06;;;;;;;;;46.50;38.75;;;;;12.25;68.55;103468.59;5026193;28;45296;-62
2021/12/16 10:00:33;;;;;;;;;52.00;37.25;;;;;12.30;68.37;103468.47;5026222;28;45305;-62
2021/12/16 10:03:00;;;;;;;;;49.00;38.50;;;;;12.33;68.30;103468.41;5022021;28;45466;-62
2021/12/16 10:05:27;;;;;;;;;54.00;40.75;;;;;12.39;68.26;103464.75;5023280;28;45323;-63
2021/12/16 10:07:53;;;;;;;;;47.25;37.25;;;;;12.45;67.83;103472.53;5023026;28;45319;-62
2021/12/16 10:10:24;;;;;;;;;48.75;39.75;;;;;12.46;67.68;103472.50;5021993;28;45327;-62
2021/12/16 10:12:51;;;;;;;;;44.75;33.75;;;;;12.47;67.63;103471.56;5023088;28;45392;-62
2021/12/16 10:18:04;;;;;;;;;50.00;37.75;;;;;12.52;67.30;103466.19;5022854;28;46131;-62
2021/12/16 10:20:35;;;;;;;;;38.75;35.00;;;;;12.55;67.29;103471.41;5022825;28;45312;-60
2021/12/16 10:23:12;;;;;;;;;41.00;36.00;;;;;12.58;67.48;103472.22;5023233;28;45324;-63
2021/12/16 10:25:47;;;;;;;;;45.50;36.50;;;;;12.63;67.46;103476.50;5022817;28;45494;-62
2021/12/16 10:28:23;;;;;;;;;46.25;36.50;;;;;12.67;67.39;103473.75;5022598;28;45515;-63
2021/12/16 10:31:07;;;;;;;;;51.50;38.50;;;;;12.73;67.07;103481.56;5022520;28;45166;-62
2021/12/16 10:33:37;;;;;;;;;39.50;33.25;;;;;12.76;66.70;103472.66;5022762;28;45386;-62
2021/12/16 10:36:14;;;;;;;;;40.25;33.50;;;;;12.78;66.66;103478.78;5022732;28;45229;-63
2021/12/16 10:38:47;;;;;;;;;50.75;34.25;;;;;12.81;66.65;103474.31;5022229;28;46302;-62
2021/12/16 10:41:36;;;;;;;;;44.25;35.75;;;;;12.86;66.53;103475.03;5022776;28;45316;-62
2021/12/16 10:44:05;;;;;;;;;42.00;33.75;;;;;12.89;66.14;103476.75;5022764;28;45308;-62
2021/12/16 10:46:36;;;;;;;;;42.75;34.25;;;;;12.87;66.60;103478.53;5022157;28;45395;-63
2021/12/16 10:49:12;;;;;;;;;38.00;28.75;;;;;12.90;66.11;103478.50;5022488;28;45337;-63
2021/12/16 10:51:47;;;;;;;;;36.25;27.00;;;;;12.91;66.00;103472.28;5021894;28;45318;-63
2021/12/16 10:54:17;;;;;;;;;41.75;32.75;;;;;12.93;66.01;103470.47;5022713;28;45324;-62
2021/12/16 10:57:20;;;;;;;;;42.75;34.50;;;;;12.97;65.95;103476.56;5022394;28;45225;-60
2021/12/16 10:59:49;;;;;;;;;44.50;34.00;;;;;13.00;66.02;103472.03;5010775;28;46414;-62
2021/12/16 11:02:24;;;;;;;;;44.50;34.50;;;;;12.99;65.46;103467.66;5022254;28;45439;-62
2021/12/16 11:04:54;;;;;;;;;39.75;36.00;;;;;12.96;65.53;103469.53;5022510;28;45486;-62
2021/12/16 11:07:29;;;;;;;;;42.75;33.25;;;;;12.94;65.66;103466.91;5022598;28;45504;-62
2021/12/16 11:09:57;;;;;;;;;42.25;35.00;;;;;12.96;65.51;103465.09;5022026;28;46166;-62
2021/12/16 11:12:41;;;;;;;;;40.25;33.75;;;;;12.98;65.54;103468.56;5021858;28;45162;-62
2021/12/16 11:15:10;;;;;;;;;42.75;34.50;;;;;12.99;65.73;103469.44;5020557;28;45368;-62
2021/12/16 11:17:43;;;;;;;;;41.50;34.00;;;;;12.99;65.58;103470.31;5021996;28;45377;-62
2021/12/16 11:20:15;;;;;;;;;45.50;36.25;;;;;12.99;65.64;103470.31;5021927;28;45450;-62
2021/12/16 11:22:41;;;;;;;;;39.50;32.25;;;;;13.01;65.46;103471.13;5021223;28;45252;-62
2021/12/16 11:25:24;;;;;;;;;40.75;31.25;;;;;13.03;65.50;103471.09;5022005;28;45241;-62
2021/12/16 11:28:04;;;;;;;;;32.75;30.00;;;;;13.04;65.31;103473.72;5022189;28;45297;-62
2021/12/16 11:30:46;;;;;;;;;32.50;23.75;;;;;13.04;65.56;103471.06;5021250;28;45480;-62
2021/12/16 11:33:13;;;;;;;;;41.00;33.00;;;;;13.06;65.39;103473.66;5021639;28;45170;-62
2021/12/16 11:35:47;;;;;;;;;44.00;34.50;;;;;13.05;65.33;103469.28;5021861;28;45277;-62
2021/12/16 11:38:22;;;;;;;;;34.75;29.75;;;;;13.05;65.52;103470.16;5021949;28;45253;-62
2021/12/16 11:41:04;;;;;;;;;33.50;29.75;;;;;13.06;65.38;103468.38;5021950;28;46580;-61
2021/12/16 11:44:05;;;;;;;;;34.00;29.50;;;;;13.04;65.24;103479.00;5021780;28;45209;-61
2021/12/16 11:46:41;;;;;;;;;31.00;29.75;;;;;13.03;65.24;103460.50;5021437;28;45372;-62
2021/12/16 11:49:15;;;;;;;;;33.25;26.25;;;;;13.02;65.17;103461.41;5021385;28;45498;-62
2021/12/16 11:51:51;;;;;;;;;32.50;27.00;;;;;13.03;65.53;103468.44;5036243;28;48202;-62
2021/12/16 11:54:25;;;;;;;;;39.75;31.75;;;;;13.05;65.28;103467.50;5021538;28;45303;-61
2021/12/16 11:57:17;;;;;;;;;31.00;28.75;;;;;13.06;65.26;103466.59;5021012;28;45450;-62
2021/12/16 12:00:14;;;;;;;;;37.50;29.50;;;;;13.09;65.30;103466.50;5021011;28;45233;-61
2021/12/16 12:02:55;;;;;;;;;38.75;27.50;;;;;13.10;65.51;103456.78;5020932;28;45381;-62
2021/12/16 12:05:44;;;;;;;;;41.50;32.25;;;;;13.13;65.17;103459.38;5021047;28;45292;-61
2021/12/16 12:08:17;;;;;;;;;32.50;24.75;;;;;13.16;65.23;103461.94;5021049;28;45398;-62
2021/12/16 12:11:03;;;;;;;;;32.00;29.50;;;;;13.17;64.92;103457.50;5021221;28;45459;-61
2021/12/16 12:13:41;;;;;;;;;35.00;28.75;;;;;13.20;64.88;103460.13;5021224;28;45331;-62
2021/12/16 12:16:08;;;;;;;;;37.25;29.50;;;;;13.19;64.88;103456.53;5020732;28;45340;-61
2021/12/16 12:18:44;;;;;;;;;29.50;27.50;;;;;13.18;64.72;103456.59;5021194;28;45463;-62
2021/12/16 12:21:27;;;;;;;;;37.75;33.25;;;;;13.18;64.92;103452.16;5021127;28;45581;-62
2021/12/16 12:24:09;;;;;;;;;37.25;30.25;;;;;13.17;64.81;103447.78;5020813;28;45561;-62
2021/12/16 12:26:40;;;;;;;;;33.50;28.75;;;;;13.18;64.80;103451.28;5035380;28;45483;-62
2021/12/16 12:29:13;;;;;;;;;28.75;25.75;;;;;13.18;64.69;103449.50;5036126;28;45297;-62
2021/12/16 12:31:43;;;;;;;;;37.25;32.00;;;;;13.18;64.83;103446.00;5008655;28;45249;-62
2021/12/16 12:34:09;;;;;;;;;29.25;27.50;;;;;13.18;64.49;103443.34;5000977;28;46199;-62
2021/12/16 12:36:35;;;;;;;;;29.25;26.50;;;;;13.17;64.43;103434.53;5000687;28;45442;-62
2021/12/16 12:39:05;;;;;;;;;35.00;27.75;;;;;13.19;64.61;103434.50;5000929;28;45336;-62
2021/12/16 12:41:32;;;;;;;;;40.75;27.75;;;;;13.21;64.52;103440.66;5001212;28;45241;-63
2021/12/16 12:43:58;;;;;;;;;29.00;25.50;;;;;13.22;64.37;103435.34;5007581;28;45502;-63
2021/12/16 12:46:23;;;;;;;;;32.75;26.25;;;;;13.22;64.42;103429.16;5020393;28;45568;-63
2021/12/16 12:48:49;;;;;;;;;37.00;31.25;;;;;13.23;64.18;103442.34;5020577;28;45422;-63
2021/12/16 12:51:16;;;;;;;;;28.25;26.00;;;;;13.25;64.08;103437.88;5020585;28;45330;-61
2021/12/16 12:53:49;;;;;;;;;36.25;33.00;;;;;13.27;64.08;103436.09;5020466;28;45994;-60
2021/12/16 12:56:29;;;;;;;;;29.25;25.25;;;;;13.28;63.84;103427.22;5020426;28;45376;-63
2021/12/16 12:59:03;;;;;;;;;28.50;26.50;;;;;13.30;63.81;103429.81;5032644;28;45452;-62
2021/12/16 13:01:40;;;;;;;;;33.00;26.50;;;;;13.31;63.92;103428.91;5020431;28;45235;-60
2021/12/16 13:04:13;;;;;;;;;34.25;29.75;;;;;13.31;64.10;103423.63;5020370;28;45467;-63
2021/12/16 13:07:05;;;;;;;;;35.25;27.50;;;;;13.33;63.83;103424.44;5020298;28;45185;-62
2021/12/16 13:09:43;;;;;;;;;30.25;28.00;;;;;13.33;63.96;103427.94;5021197;28;45573;-63
2021/12/16 13:12:22;;;;;;;;;32.00;28.00;;;;;13.31;63.68;103424.50;5020536;28;45463;-63
2021/12/16 13:14:51;;;;;;;;;28.25;25.50;;;;;13.31;63.61;103428.91;5020136;28;45236;-63
2021/12/16 13:31:03;;;;;;;;;25.50;23.00;;;;;13.36;63.26;103416.44;5019911;28;45399;-61
2021/12/16 13:33:53;;;;;;;;;30.25;25.75;;;;;13.37;63.22;103412.88;5019837;28;45465;-62
2021/12/16 13:36:38;;;;;;;;;28.75;26.00;;;;;13.37;62.97;103413.72;5020813;28;45409;-61
2021/12/16 13:39:09;;;;;;;;;34.75;31.50;;;;;13.38;63.13;103406.66;5023339;28;45323;-62
2021/12/16 13:41:36;;;;;;;;;35.50;30.00;;;;;13.40;63.33;103407.47;5023595;28;45239;-62
2021/12/16 13:44:14;;;;;;;;;31.75;26.75;;;;;13.39;63.45;103405.75;5039001;28;45210;-61
2021/12/16 13:47:05;;;;;;;;;27.75;26.00;;;;;13.41;62.87;103403.91;5022528;28;45541;-62
2021/12/16 14:01:32;;;;;;;;;33.00;29.50;;;;;13.32;63.59;103412.13;5010291;28;45288;-62
2021/12/16 14:04:36;;;;;;;;;37.25;31.75;;;;;13.27;63.26;103412.25;5023059;28;45271;-62
2021/12/16 14:07:24;;;;;;;;;30.75;25.75;;;;;13.21;63.63;103416.84;5023140;28;45244;-61
2021/12/16 14:10:11;;;;;;;;;36.25;32.25;;;;;13.17;63.66;103408.06;5022713;28;45229;-62
2021/12/16 14:16:23;;;;;;;;;42.75;33.00;;;;;13.09;63.90;103410.94;5022823;28;45462;-62
2021/12/16 14:31:08;;;;;;;;;42.25;38.00;;;;;13.12;64.14;103405.56;5022964;28;45404;-62
2021/12/16 14:42:48;;;;;;;;;32.75;27.50;;;;;12.98;64.95;103414.78;5022676;28;45453;-62
2021/12/16 14:48:35;;;;;;;;;41.50;34.25;;;;;12.92;65.17;103409.66;5013771;28;45435;-62